sensor_id;sensor_type;location;lat;lon;timestamp;temperature;humidity
75321;DHT22;68337;52.196;5.660;2023-03-31T00:00:42;9.70;99.90
75321;DHT22;68337;52.196;5.660;2023-03-31T00:03:08;9.70;99.90
75321;DHT22;68337;52.196;5.660;2023-03-31T00:05:38;9.80;99.90
75321;DHT22;68337;52.196;5.660;2023-03-31T00:08:04;9.80;99.90
75321;DHT22;68337;52.196;5.660;2023-03-31T00:10:33;9.70;99.90
75321;DHT22;68337;52.196;5.660;2023-03-31T00:13:00;9.70;99.90
75321;DHT22;68337;52.196;5.660;2023-03-31T00:15:27;9.70;99.90
75321;DHT22;68337;52.196;5.660;2023-03-31T00:17:53;9.70;99.90
75321;DHT22;68337;52.196;5.660;2023-03-31T00:20:18;9.70;99.90
75321;DHT22;68337;52.196;5.660;2023-03-31T00:22:44;9.80;99.90
75321;DHT22;68337;52.196;5.660;2023-03-31T00:25:14;9.70;99.90
75321;DHT22;68337;52.196;5.660;2023-03-31T00:27:44;9.70;99.90
75321;DHT22;68337;52.196;5.660;2023-03-31T00:30:12;9.60;99.90
75321;DHT22;68337;52.196;5.660;2023-03-31T00:32:38;9.70;99.90
75321;DHT22;68337;52.196;5.660;2023-03-31T00:35:04;9.80;99.90
75321;DHT22;68337;52.196;5.660;2023-03-31T00:37:29;9.90;99.90
75321;DHT22;68337;52.196;5.660;2023-03-31T00:39:55;9.90;99.90
75321;DHT22;68337;52.196;5.660;2023-03-31T00:42:22;10.00;99.90
75321;DHT22;68337;52.196;5.660;2023-03-31T00:45:30;10.10;99.90
75321;DHT22;68337;52.196;5.660;2023-03-31T00:48:15;10.10;99.90
75321;DHT22;68337;52.196;5.660;2023-03-31T00:50:51;10.10;99.90
75321;DHT22;68337;52.196;5.660;2023-03-31T00:53:19;10.10;99.90
75321;DHT22;68337;52.196;5.660;2023-03-31T00:55:52;10.10;99.90
75321;DHT22;68337;52.196;5.660;2023-03-31T00:58:19;10.20;99.90
75321;DHT22;68337;52.196;5.660;2023-03-31T01:00:53;10.20;99.90
75321;DHT22;68337;52.196;5.660;2023-03-31T01:03:20;10.20;99.90
75321;DHT22;68337;52.196;5.660;2023-03-31T01:05:55;10.10;99.90
75321;DHT22;68337;52.196;5.660;2023-03-31T01:08:25;10.20;99.90
75321;DHT22;68337;52.196;5.660;2023-03-31T01:10:54;10.20;99.90
75321;DHT22;68337;52.196;5.660;2023-03-31T01:13:21;10.30;99.90
75321;DHT22;68337;52.196;5.660;2023-03-31T01:15:48;10.30;99.90
75321;DHT22;68337;52.196;5.660;2023-03-31T01:18:14;10.40;99.90
75321;DHT22;68337;52.196;5.660;2023-03-31T01:24:24;10.50;99.90
75321;DHT22;68337;52.196;5.660;2023-03-31T01:38:05;10.70;99.90
75321;DHT22;68337;52.196;5.660;2023-03-31T01:43:32;10.70;99.90
75321;DHT22;68337;52.196;5.660;2023-03-31T01:49:14;10.80;99.90
75321;DHT22;68337;52.196;5.660;2023-03-31T01:52:07;10.70;99.90
75321;DHT22;68337;52.196;5.660;2023-03-31T01:54:54;10.70;99.90
75321;DHT22;68337;52.196;5.660;2023-03-31T02:03:03;10.60;99.90
75321;DHT22;68337;52.196;5.660;2023-03-31T02:05:34;10.60;99.90
75321;DHT22;68337;52.196;5.660;2023-03-31T02:08:15;10.60;99.90
75321;DHT22;68337;52.196;5.660;2023-03-31T02:10:43;10.70;99.90
75321;DHT22;68337;52.196;5.660;2023-03-31T02:13:10;10.70;99.90
75321;DHT22;68337;52.196;5.660;2023-03-31T02:15:40;10.70;99.90
75321;DHT22;68337;52.196;5.660;2023-03-31T02:18:10;10.70;99.90
75321;DHT22;68337;52.196;5.660;2023-03-31T02:20:42;10.70;99.90
75321;DHT22;68337;52.196;5.660;2023-03-31T02:23:11;10.70;99.90
75321;DHT22;68337;52.196;5.660;2023-03-31T02:25:44;10.80;99.90
75321;DHT22;68337;52.196;5.660;2023-03-31T02:28:19;10.80;99.90
75321;DHT22;68337;52.196;5.660;2023-03-31T02:33:36;10.80;99.90
75321;DHT22;68337;52.196;5.660;2023-03-31T02:36:02;10.80;99.90
75321;DHT22;68337;52.196;5.660;2023-03-31T02:38:31;10.80;99.90
75321;DHT22;68337;52.196;5.660;2023-03-31T02:40:59;10.80;99.90
75321;DHT22;68337;52.196;5.660;2023-03-31T02:43:25;10.80;99.90
75321;DHT22;68337;52.196;5.660;2023-03-31T02:45:50;10.80;99.90
75321;DHT22;68337;52.196;5.660;2023-03-31T02:48:21;10.80;99.90
75321;DHT22;68337;52.196;5.660;2023-03-31T02:56:33;10.80;99.90
75321;DHT22;68337;52.196;5.660;2023-03-31T02:59:23;10.90;99.90
75321;DHT22;68337;52.196;5.660;2023-03-31T03:04:50;10.90;99.90
75321;DHT22;68337;52.196;5.660;2023-03-31T03:07:23;10.80;99.90
75321;DHT22;68337;52.196;5.660;2023-03-31T03:09:55;10.80;99.90
75321;DHT22;68337;52.196;5.660;2023-03-31T03:12:39;10.80;99.90
75321;DHT22;68337;52.196;5.660;2023-03-31T03:15:16;10.80;99.90
75321;DHT22;68337;52.196;5.660;2023-03-31T03:17:46;10.80;99.90
75321;DHT22;68337;52.196;5.660;2023-03-31T03:20:13;10.70;99.90
75321;DHT22;68337;52.196;5.660;2023-03-31T03:22:41;10.70;99.90
75321;DHT22;68337;52.196;5.660;2023-03-31T03:25:09;10.70;99.90
75321;DHT22;68337;52.196;5.660;2023-03-31T03:27:36;10.70;99.90
75321;DHT22;68337;52.196;5.660;2023-03-31T03:30:03;10.70;99.90
75321;DHT22;68337;52.196;5.660;2023-03-31T03:32:30;10.70;99.90
75321;DHT22;68337;52.196;5.660;2023-03-31T03:34:55;10.60;99.90
75321;DHT22;68337;52.196;5.660;2023-03-31T03:37:21;10.60;99.90
75321;DHT22;68337;52.196;5.660;2023-03-31T03:39:47;10.60;99.90
75321;DHT22;68337;52.196;5.660;2023-03-31T03:42:12;10.60;99.90
75321;DHT22;68337;52.196;5.660;2023-03-31T03:44:38;10.50;99.90
75321;DHT22;68337;52.196;5.660;2023-03-31T03:47:04;10.50;99.90
75321;DHT22;68337;52.196;5.660;2023-03-31T03:49:30;10.50;99.90
75321;DHT22;68337;52.196;5.660;2023-03-31T03:51:55;10.50;99.90
75321;DHT22;68337;52.196;5.660;2023-03-31T03:54:21;10.50;99.90
75321;DHT22;68337;52.196;5.660;2023-03-31T03:56:47;10.50;99.90
75321;DHT22;68337;52.196;5.660;2023-03-31T03:59:13;10.50;99.90
75321;DHT22;68337;52.196;5.660;2023-03-31T04:01:38;10.50;99.90
75321;DHT22;68337;52.196;5.660;2023-03-31T04:04:05;10.50;99.90
75321;DHT22;68337;52.196;5.660;2023-03-31T04:06:30;10.50;99.90
75321;DHT22;68337;52.196;5.660;2023-03-31T04:08:56;10.50;99.90
75321;DHT22;68337;52.196;5.660;2023-03-31T04:11:22;10.50;99.90
75321;DHT22;68337;52.196;5.660;2023-03-31T04:13:48;10.40;99.90
75321;DHT22;68337;52.196;5.660;2023-03-31T04:16:14;10.40;99.90
75321;DHT22;68337;52.196;5.660;2023-03-31T04:18:41;10.30;99.90
75321;DHT22;68337;52.196;5.660;2023-03-31T04:21:11;10.40;99.90
75321;DHT22;68337;52.196;5.660;2023-03-31T04:23:40;10.30;99.90
75321;DHT22;68337;52.196;5.660;2023-03-31T04:26:13;10.30;99.90
75321;DHT22;68337;52.196;5.660;2023-03-31T04:28:40;10.30;99.90
75321;DHT22;68337;52.196;5.660;2023-03-31T04:31:10;10.30;99.90
75321;DHT22;68337;52.196;5.660;2023-03-31T04:33:40;10.30;99.90
75321;DHT22;68337;52.196;5.660;2023-03-31T04:36:06;10.20;99.90
75321;DHT22;68337;52.196;5.660;2023-03-31T04:38:46;10.20;99.90
75321;DHT22;68337;52.196;5.660;2023-03-31T04:41:15;10.20;99.90
75321;DHT22;68337;52.196;5.660;2023-03-31T04:43:41;10.20;99.90
75321;DHT22;68337;52.196;5.660;2023-03-31T04:46:08;10.20;99.90
75321;DHT22;68337;52.196;5.660;2023-03-31T04:48:34;10.20;99.90
75321;DHT22;68337;52.196;5.660;2023-03-31T04:51:00;10.20;99.90
75321;DHT22;68337;52.196;5.660;2023-03-31T04:53:25;10.20;99.90
75321;DHT22;68337;52.196;5.660;2023-03-31T04:55:51;10.20;99.90
75321;DHT22;68337;52.196;5.660;2023-03-31T04:58:17;10.20;99.90
75321;DHT22;68337;52.196;5.660;2023-03-31T05:00:43;10.20;99.90
75321;DHT22;68337;52.196;5.660;2023-03-31T05:03:09;10.20;99.90
75321;DHT22;68337;52.196;5.660;2023-03-31T05:05:35;10.20;99.90
75321;DHT22;68337;52.196;5.660;2023-03-31T05:08:01;10.20;99.90
75321;DHT22;68337;52.196;5.660;2023-03-31T05:10:27;10.20;99.90
75321;DHT22;68337;52.196;5.660;2023-03-31T05:12:53;10.20;99.90
75321;DHT22;68337;52.196;5.660;2023-03-31T05:15:19;10.30;99.90
75321;DHT22;68337;52.196;5.660;2023-03-31T05:17:45;10.30;99.90
75321;DHT22;68337;52.196;5.660;2023-03-31T05:20:11;10.30;99.90
75321;DHT22;68337;52.196;5.660;2023-03-31T05:22:39;10.40;99.90
75321;DHT22;68337;52.196;5.660;2023-03-31T05:25:07;10.40;99.90
75321;DHT22;68337;52.196;5.660;2023-03-31T05:27:34;10.40;99.90
75321;DHT22;68337;52.196;5.660;2023-03-31T05:30:01;10.40;99.90
75321;DHT22;68337;52.196;5.660;2023-03-31T05:32:27;10.40;99.90
75321;DHT22;68337;52.196;5.660;2023-03-31T05:34:53;10.40;99.90
75321;DHT22;68337;52.196;5.660;2023-03-31T05:37:25;10.40;99.90
75321;DHT22;68337;52.196;5.660;2023-03-31T05:39:52;10.50;99.90
75321;DHT22;68337;52.196;5.660;2023-03-31T05:42:18;10.50;99.90
75321;DHT22;68337;52.196;5.660;2023-03-31T05:44:44;10.50;99.90
75321;DHT22;68337;52.196;5.660;2023-03-31T05:47:10;10.50;99.90
75321;DHT22;68337;52.196;5.660;2023-03-31T05:49:36;10.50;99.90
75321;DHT22;68337;52.196;5.660;2023-03-31T05:52:04;10.50;99.90
75321;DHT22;68337;52.196;5.660;2023-03-31T05:54:30;10.50;99.90
75321;DHT22;68337;52.196;5.660;2023-03-31T05:56:56;10.40;99.90
75321;DHT22;68337;52.196;5.660;2023-03-31T05:59:22;10.40;99.90
75321;DHT22;68337;52.196;5.660;2023-03-31T06:01:47;10.40;99.90
75321;DHT22;68337;52.196;5.660;2023-03-31T06:04:13;10.50;99.90
75321;DHT22;68337;52.196;5.660;2023-03-31T06:06:39;10.50;99.90
75321;DHT22;68337;52.196;5.660;2023-03-31T06:09:05;10.40;99.90
75321;DHT22;68337;52.196;5.660;2023-03-31T06:11:31;10.40;99.90
75321;DHT22;68337;52.196;5.660;2023-03-31T06:13:56;10.40;99.90
75321;DHT22;68337;52.196;5.660;2023-03-31T06:16:22;10.50;99.90
75321;DHT22;68337;52.196;5.660;2023-03-31T06:18:48;10.50;99.90
75321;DHT22;68337;52.196;5.660;2023-03-31T06:21:16;10.50;99.90
75321;DHT22;68337;52.196;5.660;2023-03-31T06:23:42;10.50;99.90
75321;DHT22;68337;52.196;5.660;2023-03-31T06:26:18;10.50;99.90
75321;DHT22;68337;52.196;5.660;2023-03-31T06:28:44;10.50;99.90
75321;DHT22;68337;52.196;5.660;2023-03-31T06:31:12;10.50;99.90
75321;DHT22;68337;52.196;5.660;2023-03-31T06:33:39;10.50;99.90
75321;DHT22;68337;52.196;5.660;2023-03-31T06:36:06;10.50;99.90
75321;DHT22;68337;52.196;5.660;2023-03-31T06:38:34;10.50;99.90
75321;DHT22;68337;52.196;5.660;2023-03-31T06:41:01;10.50;99.90
75321;DHT22;68337;52.196;5.660;2023-03-31T06:43:27;10.60;99.90
75321;DHT22;68337;52.196;5.660;2023-03-31T06:45:53;10.60;99.90
75321;DHT22;68337;52.196;5.660;2023-03-31T06:48:19;10.60;99.90
75321;DHT22;68337;52.196;5.660;2023-03-31T06:50:45;10.60;99.90
75321;DHT22;68337;52.196;5.660;2023-03-31T06:53:11;10.70;99.90
75321;DHT22;68337;52.196;5.660;2023-03-31T06:55:37;10.70;99.90
75321;DHT22;68337;52.196;5.660;2023-03-31T06:58:03;10.70;99.90
75321;DHT22;68337;52.196;5.660;2023-03-31T07:00:29;10.70;99.90
75321;DHT22;68337;52.196;5.660;2023-03-31T07:02:55;10.80;99.90
75321;DHT22;68337;52.196;5.660;2023-03-31T07:05:21;10.70;99.90
75321;DHT22;68337;52.196;5.660;2023-03-31T07:07:56;10.80;99.90
75321;DHT22;68337;52.196;5.660;2023-03-31T07:10:23;10.80;99.90
75321;DHT22;68337;52.196;5.660;2023-03-31T07:12:49;10.90;99.90
75321;DHT22;68337;52.196;5.660;2023-03-31T07:15:15;10.90;99.90
75321;DHT22;68337;52.196;5.660;2023-03-31T07:17:41;10.90;99.90
75321;DHT22;68337;52.196;5.660;2023-03-31T07:20:17;10.90;99.90
75321;DHT22;68337;52.196;5.660;2023-03-31T07:22:47;10.90;99.90
75321;DHT22;68337;52.196;5.660;2023-03-31T07:25:15;10.90;99.90
75321;DHT22;68337;52.196;5.660;2023-03-31T07:27:42;10.90;99.90
75321;DHT22;68337;52.196;5.660;2023-03-31T07:30:16;10.90;99.90
75321;DHT22;68337;52.196;5.660;2023-03-31T07:32:42;10.90;99.90
75321;DHT22;68337;52.196;5.660;2023-03-31T07:35:10;10.90;99.90
75321;DHT22;68337;52.196;5.660;2023-03-31T07:37:37;10.90;99.90
75321;DHT22;68337;52.196;5.660;2023-03-31T07:40:04;11.00;99.90
75321;DHT22;68337;52.196;5.660;2023-03-31T07:42:31;11.00;99.90
75321;DHT22;68337;52.196;5.660;2023-03-31T07:44:57;10.90;99.90
75321;DHT22;68337;52.196;5.660;2023-03-31T07:47:23;10.90;99.90
75321;DHT22;68337;52.196;5.660;2023-03-31T07:49:49;10.90;99.90
75321;DHT22;68337;52.196;5.660;2023-03-31T07:52:15;10.90;99.90
75321;DHT22;68337;52.196;5.660;2023-03-31T07:54:43;10.90;99.90
75321;DHT22;68337;52.196;5.660;2023-03-31T07:57:09;10.90;99.90
75321;DHT22;68337;52.196;5.660;2023-03-31T07:59:35;10.90;99.90
75321;DHT22;68337;52.196;5.660;2023-03-31T08:02:01;11.00;99.90
75321;DHT22;68337;52.196;5.660;2023-03-31T08:04:26;11.00;99.90
75321;DHT22;68337;52.196;5.660;2023-03-31T08:06:52;11.10;99.90
75321;DHT22;68337;52.196;5.660;2023-03-31T08:09:18;11.10;99.90
75321;DHT22;68337;52.196;5.660;2023-03-31T08:11:46;11.10;99.90
75321;DHT22;68337;52.196;5.660;2023-03-31T08:14:12;11.20;99.90
75321;DHT22;68337;52.196;5.660;2023-03-31T08:16:38;11.20;99.90
75321;DHT22;68337;52.196;5.660;2023-03-31T08:19:04;11.10;99.90
75321;DHT22;68337;52.196;5.660;2023-03-31T08:21:29;11.10;99.90
75321;DHT22;68337;52.196;5.660;2023-03-31T08:23:56;11.10;99.90
75321;DHT22;68337;52.196;5.660;2023-03-31T08:26:22;11.00;99.90
75321;DHT22;68337;52.196;5.660;2023-03-31T08:28:52;11.00;99.90
75321;DHT22;68337;52.196;5.660;2023-03-31T08:31:21;11.00;99.90
75321;DHT22;68337;52.196;5.660;2023-03-31T08:33:48;11.00;99.90
75321;DHT22;68337;52.196;5.660;2023-03-31T08:36:14;11.00;99.90
75321;DHT22;68337;52.196;5.660;2023-03-31T08:38:41;11.10;99.90
75321;DHT22;68337;52.196;5.660;2023-03-31T08:44:28;11.30;99.90
75321;DHT22;68337;52.196;5.660;2023-03-31T08:46:56;11.50;99.90
75321;DHT22;68337;52.196;5.660;2023-03-31T08:49:23;11.40;99.90
75321;DHT22;68337;52.196;5.660;2023-03-31T08:52:18;11.40;99.90
75321;DHT22;68337;52.196;5.660;2023-03-31T08:54:48;11.30;99.90
75321;DHT22;68337;52.196;5.660;2023-03-31T08:57:22;11.30;99.90
75321;DHT22;68337;52.196;5.660;2023-03-31T08:59:48;11.30;99.90
75321;DHT22;68337;52.196;5.660;2023-03-31T09:02:29;11.30;99.90
75321;DHT22;68337;52.196;5.660;2023-03-31T09:18:31;11.70;99.90
75321;DHT22;68337;52.196;5.660;2023-03-31T09:21:28;11.80;99.90
75321;DHT22;68337;52.196;5.660;2023-03-31T09:26:35;11.90;99.90
75321;DHT22;68337;52.196;5.660;2023-03-31T09:29:06;12.00;99.90
75321;DHT22;68337;52.196;5.660;2023-03-31T09:31:37;12.00;99.90
75321;DHT22;68337;52.196;5.660;2023-03-31T09:34:16;12.00;99.90
75321;DHT22;68337;52.196;5.660;2023-03-31T09:36:46;12.10;99.90
75321;DHT22;68337;52.196;5.660;2023-03-31T09:39:13;12.20;99.90
75321;DHT22;68337;52.196;5.660;2023-03-31T09:41:43;12.20;99.90
75321;DHT22;68337;52.196;5.660;2023-03-31T09:46:46;12.30;99.90
75321;DHT22;68337;52.196;5.660;2023-03-31T09:49:15;12.40;99.90
75321;DHT22;68337;52.196;5.660;2023-03-31T09:51:45;12.40;99.90
75321;DHT22;68337;52.196;5.660;2023-03-31T09:54:20;12.50;99.90
75321;DHT22;68337;52.196;5.660;2023-03-31T09:56:49;12.50;99.90
75321;DHT22;68337;52.196;5.660;2023-03-31T09:59:36;12.60;99.90
75321;DHT22;68337;52.196;5.660;2023-03-31T10:02:15;12.50;99.90
75321;DHT22;68337;52.196;5.660;2023-03-31T10:04:45;12.60;99.90
75321;DHT22;68337;52.196;5.660;2023-03-31T10:07:11;12.60;99.90
75321;DHT22;68337;52.196;5.660;2023-03-31T10:09:38;12.70;99.90
75321;DHT22;68337;52.196;5.660;2023-03-31T10:12:07;12.70;99.90
75321;DHT22;68337;52.196;5.660;2023-03-31T10:14:47;12.70;99.90
75321;DHT22;68337;52.196;5.660;2023-03-31T10:17:15;12.80;99.90
75321;DHT22;68337;52.196;5.660;2023-03-31T10:19:57;12.90;99.90
75321;DHT22;68337;52.196;5.660;2023-03-31T10:22:28;13.00;99.90
75321;DHT22;68337;52.196;5.660;2023-03-31T10:25:14;13.10;99.90
75321;DHT22;68337;52.196;5.660;2023-03-31T10:27:40;13.20;99.90
75321;DHT22;68337;52.196;5.660;2023-03-31T10:30:23;13.30;99.90
75321;DHT22;68337;52.196;5.660;2023-03-31T10:32:50;13.40;99.90
75321;DHT22;68337;52.196;5.660;2023-03-31T10:35:29;13.60;99.90
75321;DHT22;68337;52.196;5.660;2023-03-31T10:38:01;13.60;99.90
75321;DHT22;68337;52.196;5.660;2023-03-31T10:40:29;13.70;99.90
75321;DHT22;68337;52.196;5.660;2023-03-31T10:45:50;13.80;99.90
75321;DHT22;68337;52.196;5.660;2023-03-31T10:48:22;13.90;99.90
75321;DHT22;68337;52.196;5.660;2023-03-31T10:50:49;13.90;99.90
75321;DHT22;68337;52.196;5.660;2023-03-31T10:53:15;13.90;99.90
75321;DHT22;68337;52.196;5.660;2023-03-31T11:01:34;13.90;99.90
75321;DHT22;68337;52.196;5.660;2023-03-31T11:09:22;13.90;99.90
75321;DHT22;68337;52.196;5.660;2023-03-31T11:11:58;13.90;99.90
75321;DHT22;68337;52.196;5.660;2023-03-31T11:20:30;13.70;99.90
75321;DHT22;68337;52.196;5.660;2023-03-31T11:25:55;13.60;99.90
75321;DHT22;68337;52.196;5.660;2023-03-31T11:39:34;13.70;99.90
75321;DHT22;68337;52.196;5.660;2023-03-31T11:42:12;13.60;99.90
75321;DHT22;68337;52.196;5.660;2023-03-31T11:44:47;13.60;99.90
75321;DHT22;68337;52.196;5.660;2023-03-31T11:47:24;13.70;99.90
75321;DHT22;68337;52.196;5.660;2023-03-31T11:49:57;13.50;99.90
75321;DHT22;68337;52.196;5.660;2023-03-31T11:52:33;13.40;99.90
75321;DHT22;68337;52.196;5.660;2023-03-31T11:55:17;13.50;99.90
75321;DHT22;68337;52.196;5.660;2023-03-31T11:58:10;13.50;99.90
75321;DHT22;68337;52.196;5.660;2023-03-31T12:00:45;13.50;99.90
75321;DHT22;68337;52.196;5.660;2023-03-31T12:03:23;13.40;99.90
75321;DHT22;68337;52.196;5.660;2023-03-31T12:05:55;13.30;99.90
75321;DHT22;68337;52.196;5.660;2023-03-31T12:08:36;13.30;99.90
75321;DHT22;68337;52.196;5.660;2023-03-31T12:11:11;13.30;99.90
75321;DHT22;68337;52.196;5.660;2023-03-31T12:14:05;13.20;99.90
75321;DHT22;68337;52.196;5.660;2023-03-31T12:16:41;13.00;99.90
75321;DHT22;68337;52.196;5.660;2023-03-31T12:19:17;12.80;99.90
75321;DHT22;68337;52.196;5.660;2023-03-31T12:21:49;12.90;99.90
75321;DHT22;68337;52.196;5.660;2023-03-31T12:24:16;12.90;99.90
75321;DHT22;68337;52.196;5.660;2023-03-31T12:31:56;12.70;99.90
75321;DHT22;68337;52.196;5.660;2023-03-31T12:34:23;12.60;99.90
75321;DHT22;68337;52.196;5.660;2023-03-31T12:42:04;12.40;99.90
75321;DHT22;68337;52.196;5.660;2023-03-31T12:55:47;12.50;99.90
75321;DHT22;68337;52.196;5.660;2023-03-31T13:03:52;12.60;99.90
75321;DHT22;68337;52.196;5.660;2023-03-31T13:08:56;12.50;99.90
75321;DHT22;68337;52.196;5.660;2023-03-31T13:14:24;12.60;99.90
75321;DHT22;68337;52.196;5.660;2023-03-31T13:17:20;12.80;99.90
75321;DHT22;68337;52.196;5.660;2023-03-31T13:19:47;12.90;99.90
75321;DHT22;68337;52.196;5.660;2023-03-31T13:22:29;13.20;99.90
75321;DHT22;68337;52.196;5.660;2023-03-31T13:31:02;13.30;99.90
75321;DHT22;68337;52.196;5.660;2023-03-31T13:42:05;13.20;99.90
75321;DHT22;68337;52.196;5.660;2023-03-31T13:47:32;13.20;99.90
75321;DHT22;68337;52.196;5.660;2023-03-31T13:53:04;13.20;99.90
75321;DHT22;68337;52.196;5.660;2023-03-31T13:55:45;13.10;99.90
75321;DHT22;68337;52.196;5.660;2023-03-31T14:07:20;12.60;99.90
75321;DHT22;68337;52.196;5.660;2023-03-31T14:09:51;12.60;99.90
75321;DHT22;68337;52.196;5.660;2023-03-31T14:12:28;12.50;99.90
75321;DHT22;68337;52.196;5.660;2023-03-31T14:14:54;12.60;99.90
75321;DHT22;68337;52.196;5.660;2023-03-31T14:17:26;12.50;99.90
75321;DHT22;68337;52.196;5.660;2023-03-31T14:20:28;12.60;99.90
75321;DHT22;68337;52.196;5.660;2023-03-31T14:23:12;12.50;99.90
75321;DHT22;68337;52.196;5.660;2023-03-31T14:25:52;12.60;99.90
75321;DHT22;68337;52.196;5.660;2023-03-31T14:34:00;12.50;99.90
75321;DHT22;68337;52.196;5.660;2023-03-31T14:36:34;12.40;99.90
75321;DHT22;68337;52.196;5.660;2023-03-31T14:39:07;12.40;99.90
75321;DHT22;68337;52.196;5.660;2023-03-31T14:41:34;12.30;99.90
75321;DHT22;68337;52.196;5.660;2023-03-31T14:44:04;12.40;99.90
75321;DHT22;68337;52.196;5.660;2023-03-31T14:46:34;12.50;99.90
75321;DHT22;68337;52.196;5.660;2023-03-31T14:49:27;12.50;99.90
75321;DHT22;68337;52.196;5.660;2023-03-31T14:51:53;12.50;99.90
75321;DHT22;68337;52.196;5.660;2023-03-31T14:54:20;12.30;99.90
75321;DHT22;68337;52.196;5.660;2023-03-31T14:56:51;12.20;99.90
75321;DHT22;68337;52.196;5.660;2023-03-31T14:59:30;12.10;99.90
75321;DHT22;68337;52.196;5.660;2023-03-31T15:01:58;12.00;99.90
75321;DHT22;68337;52.196;5.660;2023-03-31T15:04:27;12.00;99.90
75321;DHT22;68337;52.196;5.660;2023-03-31T15:06:53;12.00;99.90
75321;DHT22;68337;52.196;5.660;2023-03-31T15:09:29;11.90;99.90
75321;DHT22;68337;52.196;5.660;2023-03-31T15:12:06;11.90;99.90
75321;DHT22;68337;52.196;5.660;2023-03-31T15:14:37;11.90;99.90
75321;DHT22;68337;52.196;5.660;2023-03-31T15:17:05;12.00;99.90
75321;DHT22;68337;52.196;5.660;2023-03-31T15:19:34;12.00;99.90
75321;DHT22;68337;52.196;5.660;2023-03-31T15:22:16;12.00;99.90
75321;DHT22;68337;52.196;5.660;2023-03-31T15:24:45;12.10;99.90
75321;DHT22;68337;52.196;5.660;2023-03-31T15:27:24;12.20;99.90
75321;DHT22;68337;52.196;5.660;2023-03-31T15:29:54;12.20;99.90
75321;DHT22;68337;52.196;5.660;2023-03-31T15:32:26;12.20;99.90
75321;DHT22;68337;52.196;5.660;2023-03-31T15:34:53;12.20;99.90
75321;DHT22;68337;52.196;5.660;2023-03-31T15:37:25;12.20;99.90
75321;DHT22;68337;52.196;5.660;2023-03-31T15:39:59;12.20;99.90
75321;DHT22;68337;52.196;5.660;2023-03-31T15:42:26;12.10;99.90
75321;DHT22;68337;52.196;5.660;2023-03-31T15:47:52;12.00;99.90
75321;DHT22;68337;52.196;5.660;2023-03-31T15:50:22;12.00;99.90
75321;DHT22;68337;52.196;5.660;2023-03-31T15:52:53;11.90;99.90
75321;DHT22;68337;52.196;5.660;2023-03-31T15:57:48;11.70;99.90
75321;DHT22;68337;52.196;5.660;2023-03-31T16:03:04;11.70;99.90
75321;DHT22;68337;52.196;5.660;2023-03-31T16:05:46;11.70;99.90
75321;DHT22;68337;52.196;5.660;2023-03-31T16:08:19;11.60;99.90
75321;DHT22;68337;52.196;5.660;2023-03-31T16:10:46;11.60;99.90
75321;DHT22;68337;52.196;5.660;2023-03-31T16:13:19;11.60;99.90
75321;DHT22;68337;52.196;5.660;2023-03-31T16:15:51;11.60;99.90
75321;DHT22;68337;52.196;5.660;2023-03-31T16:18:27;11.60;99.90
75321;DHT22;68337;52.196;5.660;2023-03-31T16:20:57;11.60;99.90
75321;DHT22;68337;52.196;5.660;2023-03-31T16:23:31;11.60;99.90
75321;DHT22;68337;52.196;5.660;2023-03-31T16:25:59;11.60;99.90
75321;DHT22;68337;52.196;5.660;2023-03-31T16:28:28;11.60;99.90
75321;DHT22;68337;52.196;5.660;2023-03-31T16:30:55;11.50;99.90
75321;DHT22;68337;52.196;5.660;2023-03-31T16:33:23;11.40;99.90
75321;DHT22;68337;52.196;5.660;2023-03-31T16:35:53;11.40;99.90
75321;DHT22;68337;52.196;5.660;2023-03-31T16:38:27;11.40;99.90
75321;DHT22;68337;52.196;5.660;2023-03-31T16:40:55;11.40;99.90
75321;DHT22;68337;52.196;5.660;2023-03-31T16:43:23;11.40;99.90
75321;DHT22;68337;52.196;5.660;2023-03-31T16:45:55;11.40;99.90
75321;DHT22;68337;52.196;5.660;2023-03-31T16:48:22;11.40;99.90
75321;DHT22;68337;52.196;5.660;2023-03-31T16:50:51;11.40;99.90
75321;DHT22;68337;52.196;5.660;2023-03-31T16:53:23;11.40;99.90
75321;DHT22;68337;52.196;5.660;2023-03-31T16:55:49;11.30;99.90
75321;DHT22;68337;52.196;5.660;2023-03-31T16:58:15;11.30;99.90
75321;DHT22;68337;52.196;5.660;2023-03-31T17:00:43;11.10;99.90
75321;DHT22;68337;52.196;5.660;2023-03-31T17:03:11;11.10;99.90
75321;DHT22;68337;52.196;5.660;2023-03-31T17:05:43;11.00;99.90
75321;DHT22;68337;52.196;5.660;2023-03-31T17:08:11;10.90;99.90
75321;DHT22;68337;52.196;5.660;2023-03-31T17:10:38;10.90;99.90
75321;DHT22;68337;52.196;5.660;2023-03-31T17:13:05;10.80;99.90
75321;DHT22;68337;52.196;5.660;2023-03-31T17:15:31;10.90;99.90
75321;DHT22;68337;52.196;5.660;2023-03-31T17:17:58;10.80;99.90
75321;DHT22;68337;52.196;5.660;2023-03-31T17:20:24;10.80;99.90
75321;DHT22;68337;52.196;5.660;2023-03-31T17:22:51;10.80;99.90
75321;DHT22;68337;52.196;5.660;2023-03-31T17:25:17;10.80;99.90
75321;DHT22;68337;52.196;5.660;2023-03-31T17:27:44;10.80;99.90
75321;DHT22;68337;52.196;5.660;2023-03-31T17:30:10;10.80;99.90
75321;DHT22;68337;52.196;5.660;2023-03-31T17:32:37;10.80;99.90
75321;DHT22;68337;52.196;5.660;2023-03-31T17:35:03;10.80;99.90
75321;DHT22;68337;52.196;5.660;2023-03-31T17:37:29;10.80;99.90
75321;DHT22;68337;52.196;5.660;2023-03-31T17:39:56;10.80;99.90
75321;DHT22;68337;52.196;5.660;2023-03-31T17:42:21;10.80;99.90
75321;DHT22;68337;52.196;5.660;2023-03-31T17:44:47;10.70;99.90
75321;DHT22;68337;52.196;5.660;2023-03-31T17:47:16;10.60;99.90
75321;DHT22;68337;52.196;5.660;2023-03-31T17:49:42;10.60;99.90
75321;DHT22;68337;52.196;5.660;2023-03-31T17:52:08;10.60;99.90
75321;DHT22;68337;52.196;5.660;2023-03-31T17:54:34;10.60;99.90
75321;DHT22;68337;52.196;5.660;2023-03-31T17:57:00;10.60;99.90
75321;DHT22;68337;52.196;5.660;2023-03-31T17:59:26;10.60;99.90
75321;DHT22;68337;52.196;5.660;2023-03-31T18:01:52;10.50;99.90
75321;DHT22;68337;52.196;5.660;2023-03-31T18:04:17;10.50;99.90
75321;DHT22;68337;52.196;5.660;2023-03-31T18:06:43;10.60;99.90
75321;DHT22;68337;52.196;5.660;2023-03-31T18:09:11;10.50;99.90
75321;DHT22;68337;52.196;5.660;2023-03-31T18:11:37;10.50;99.90
75321;DHT22;68337;52.196;5.660;2023-03-31T18:14:04;10.60;99.90
75321;DHT22;68337;52.196;5.660;2023-03-31T18:16:30;10.50;99.90
75321;DHT22;68337;52.196;5.660;2023-03-31T18:18:56;10.50;99.90
75321;DHT22;68337;52.196;5.660;2023-03-31T18:21:23;10.60;99.90
75321;DHT22;68337;52.196;5.660;2023-03-31T18:23:49;10.50;99.90
75321;DHT22;68337;52.196;5.660;2023-03-31T18:26:21;10.60;99.90
75321;DHT22;68337;52.196;5.660;2023-03-31T18:28:48;10.50;99.90
75321;DHT22;68337;52.196;5.660;2023-03-31T18:31:14;10.40;99.90
75321;DHT22;68337;52.196;5.660;2023-03-31T18:33:40;10.50;99.90
75321;DHT22;68337;52.196;5.660;2023-03-31T18:36:07;10.40;99.90
75321;DHT22;68337;52.196;5.660;2023-03-31T18:38:33;10.50;99.90